sensor_id;sensor_type;location;lat;lon;timestamp;P1;durP1;ratioP1;P2;durP2;ratioP2
74707;SDS011;63360;50.104;8.074;2023-02-13T00:00:08;22.05;;;9.25;;
74707;SDS011;63360;50.104;8.074;2023-02-13T00:02:37;20.80;;;8.90;;
74707;SDS011;63360;50.104;8.074;2023-02-13T00:05:03;19.55;;;8.60;;
74707;SDS011;63360;50.104;8.074;2023-02-13T00:07:30;20.15;;;8.38;;
74707;SDS011;63360;50.104;8.074;2023-02-13T00:09:56;18.90;;;7.87;;
74707;SDS011;63360;50.104;8.074;2023-02-13T00:12:23;21.58;;;8.68;;
74707;SDS011;63360;50.104;8.074;2023-02-13T00:14:49;19.63;;;8.00;;
74707;SDS011;63360;50.104;8.074;2023-02-13T00:17:15;17.35;;;7.38;;
74707;SDS011;63360;50.104;8.074;2023-02-13T00:19:42;19.63;;;7.90;;
74707;SDS011;63360;50.104;8.074;2023-02-13T00:22:08;18.30;;;8.03;;
74707;SDS011;63360;50.104;8.074;2023-02-13T00:24:35;18.58;;;7.82;;
74707;SDS011;63360;50.104;8.074;2023-02-13T00:27:01;17.10;;;7.47;;
74707;SDS011;63360;50.104;8.074;2023-02-13T00:29:28;18.45;;;7.97;;
74707;SDS011;63360;50.104;8.074;2023-02-13T00:31:54;17.52;;;7.57;;
74707;SDS011;63360;50.104;8.074;2023-02-13T00:34:21;19.17;;;7.50;;
74707;SDS011;63360;50.104;8.074;2023-02-13T00:36:47;20.65;;;8.07;;
74707;SDS011;63360;50.104;8.074;2023-02-13T00:39:13;19.20;;;8.35;;
74707;SDS011;63360;50.104;8.074;2023-02-13T00:41:40;19.85;;;8.25;;
74707;SDS011;63360;50.104;8.074;2023-02-13T00:44:07;19.35;;;7.32;;
74707;SDS011;63360;50.104;8.074;2023-02-13T00:46:34;20.73;;;7.33;;
74707;SDS011;63360;50.104;8.074;2023-02-13T00:49:01;18.08;;;7.93;;
74707;SDS011;63360;50.104;8.074;2023-02-13T00:51:28;19.92;;;7.78;;
74707;SDS011;63360;50.104;8.074;2023-02-13T00:53:54;17.30;;;7.00;;
74707;SDS011;63360;50.104;8.074;2023-02-13T00:56:20;20.77;;;8.40;;
74707;SDS011;63360;50.104;8.074;2023-02-13T00:58:47;18.50;;;7.43;;
74707;SDS011;63360;50.104;8.074;2023-02-13T01:01:14;19.42;;;8.18;;
74707;SDS011;63360;50.104;8.074;2023-02-13T01:03:40;19.35;;;7.82;;
74707;SDS011;63360;50.104;8.074;2023-02-13T01:06:07;20.83;;;7.82;;
74707;SDS011;63360;50.104;8.074;2023-02-13T01:08:33;18.73;;;7.50;;
74707;SDS011;63360;50.104;8.074;2023-02-13T01:11:00;18.63;;;7.67;;
74707;SDS011;63360;50.104;8.074;2023-02-13T01:13:26;18.90;;;7.10;;
74707;SDS011;63360;50.104;8.074;2023-02-13T01:15:53;19.30;;;7.38;;
74707;SDS011;63360;50.104;8.074;2023-02-13T01:18:19;19.02;;;6.72;;
74707;SDS011;63360;50.104;8.074;2023-02-13T01:20:54;19.77;;;7.32;;
74707;SDS011;63360;50.104;8.074;2023-02-13T01:23:23;17.83;;;7.00;;
74707;SDS011;63360;50.104;8.074;2023-02-13T01:25:49;19.48;;;7.65;;
74707;SDS011;63360;50.104;8.074;2023-02-13T01:28:16;17.85;;;6.80;;
74707;SDS011;63360;50.104;8.074;2023-02-13T01:30:43;19.60;;;8.05;;
74707;SDS011;63360;50.104;8.074;2023-02-13T01:33:10;18.95;;;7.03;;
74707;SDS011;63360;50.104;8.074;2023-02-13T01:35:40;18.73;;;7.03;;
74707;SDS011;63360;50.104;8.074;2023-02-13T01:38:06;19.45;;;7.38;;
74707;SDS011;63360;50.104;8.074;2023-02-13T01:40:32;22.52;;;7.72;;
74707;SDS011;63360;50.104;8.074;2023-02-13T01:42:59;17.73;;;7.45;;
74707;SDS011;63360;50.104;8.074;2023-02-13T01:45:26;18.63;;;7.05;;
74707;SDS011;63360;50.104;8.074;2023-02-13T01:48:10;17.60;;;7.40;;
74707;SDS011;63360;50.104;8.074;2023-02-13T01:50:47;19.60;;;7.35;;
74707;SDS011;63360;50.104;8.074;2023-02-13T01:56:07;18.67;;;7.47;;
74707;SDS011;63360;50.104;8.074;2023-02-13T01:58:39;18.98;;;7.70;;
74707;SDS011;63360;50.104;8.074;2023-02-13T02:01:10;19.90;;;7.80;;
74707;SDS011;63360;50.104;8.074;2023-02-13T02:03:38;21.65;;;8.20;;
74707;SDS011;63360;50.104;8.074;2023-02-13T02:06:14;18.98;;;7.47;;
74707;SDS011;63360;50.104;8.074;2023-02-13T02:08:52;20.75;;;7.93;;
74707;SDS011;63360;50.104;8.074;2023-02-13T02:11:25;18.95;;;7.55;;
74707;SDS011;63360;50.104;8.074;2023-02-13T02:13:59;19.43;;;7.90;;
74707;SDS011;63360;50.104;8.074;2023-02-13T02:16:26;21.80;;;8.00;;
74707;SDS011;63360;50.104;8.074;2023-02-13T02:18:54;19.27;;;7.78;;
74707;SDS011;63360;50.104;8.074;2023-02-13T02:27:33;20.10;;;7.77;;
74707;SDS011;63360;50.104;8.074;2023-02-13T02:35:26;21.00;;;7.97;;
74707;SDS011;63360;50.104;8.074;2023-02-13T02:40:56;20.60;;;7.93;;
74707;SDS011;63360;50.104;8.074;2023-02-13T02:43:27;21.02;;;7.75;;
74707;SDS011;63360;50.104;8.074;2023-02-13T02:46:00;21.08;;;8.38;;
74707;SDS011;63360;50.104;8.074;2023-02-13T02:54:53;23.90;;;9.27;;
74707;SDS011;63360;50.104;8.074;2023-02-13T02:57:36;21.50;;;8.18;;
74707;SDS011;63360;50.104;8.074;2023-02-13T03:00:28;23.95;;;8.35;;
74707;SDS011;63360;50.104;8.074;2023-02-13T03:03:19;22.77;;;8.20;;
74707;SDS011;63360;50.104;8.074;2023-02-13T03:06:10;24.45;;;8.70;;
74707;SDS011;63360;50.104;8.074;2023-02-13T03:09:00;24.37;;;7.83;;
74707;SDS011;63360;50.104;8.074;2023-02-13T03:11:48;23.73;;;8.52;;
74707;SDS011;63360;50.104;8.074;2023-02-13T03:14:35;25.17;;;8.93;;
74707;SDS011;63360;50.104;8.074;2023-02-13T03:17:02;23.52;;;8.25;;
74707;SDS011;63360;50.104;8.074;2023-02-13T03:25:53;24.40;;;8.68;;
74707;SDS011;63360;50.104;8.074;2023-02-13T03:28:33;22.65;;;8.80;;
74707;SDS011;63360;50.104;8.074;2023-02-13T03:31:37;24.55;;;8.55;;
74707;SDS011;63360;50.104;8.074;2023-02-13T03:34:22;25.17;;;8.82;;
74707;SDS011;63360;50.104;8.074;2023-02-13T03:37:12;23.27;;;8.20;;
74707;SDS011;63360;50.104;8.074;2023-02-13T03:40:08;22.88;;;8.55;;
74707;SDS011;63360;50.104;8.074;2023-02-13T03:42:59;21.40;;;8.13;;
74707;SDS011;63360;50.104;8.074;2023-02-13T03:45:34;22.08;;;8.43;;
74707;SDS011;63360;50.104;8.074;2023-02-13T03:48:31;25.23;;;9.25;;
74707;SDS011;63360;50.104;8.074;2023-02-13T03:51:21;23.60;;;8.60;;
74707;SDS011;63360;50.104;8.074;2023-02-13T03:53:58;26.48;;;9.63;;
74707;SDS011;63360;50.104;8.074;2023-02-13T03:56:27;25.48;;;8.98;;
74707;SDS011;63360;50.104;8.074;2023-02-13T03:59:20;25.33;;;8.90;;
74707;SDS011;63360;50.104;8.074;2023-02-13T04:02:27;24.15;;;9.05;;
74707;SDS011;63360;50.104;8.074;2023-02-13T04:04:50;24.43;;;8.57;;
74707;SDS011;63360;50.104;8.074;2023-02-13T04:07:39;25.70;;;8.57;;
74707;SDS011;63360;50.104;8.074;2023-02-13T04:10:07;23.67;;;9.00;;
74707;SDS011;63360;50.104;8.074;2023-02-13T04:12:39;24.30;;;9.35;;
74707;SDS011;63360;50.104;8.074;2023-02-13T04:15:18;25.42;;;9.07;;
74707;SDS011;63360;50.104;8.074;2023-02-13T04:18:05;25.37;;;9.83;;
74707;SDS011;63360;50.104;8.074;2023-02-13T04:20:36;27.73;;;9.35;;
74707;SDS011;63360;50.104;8.074;2023-02-13T04:23:04;23.33;;;8.50;;
74707;SDS011;63360;50.104;8.074;2023-02-13T04:25:32;25.38;;;8.93;;
74707;SDS011;63360;50.104;8.074;2023-02-13T04:27:59;24.52;;;9.07;;
74707;SDS011;63360;50.104;8.074;2023-02-13T04:30:26;24.10;;;8.60;;
74707;SDS011;63360;50.104;8.074;2023-02-13T04:32:52;25.75;;;8.95;;
74707;SDS011;63360;50.104;8.074;2023-02-13T04:35:19;27.73;;;8.98;;
74707;SDS011;63360;50.104;8.074;2023-02-13T04:37:45;24.52;;;9.35;;
74707;SDS011;63360;50.104;8.074;2023-02-13T04:40:12;26.27;;;9.07;;
74707;SDS011;63360;50.104;8.074;2023-02-13T04:42:39;24.40;;;8.47;;
74707;SDS011;63360;50.104;8.074;2023-02-13T04:45:05;25.85;;;9.10;;
74707;SDS011;63360;50.104;8.074;2023-02-13T04:47:32;26.25;;;9.88;;
74707;SDS011;63360;50.104;8.074;2023-02-13T04:49:58;23.45;;;8.77;;
74707;SDS011;63360;50.104;8.074;2023-02-13T04:52:24;22.52;;;8.68;;
74707;SDS011;63360;50.104;8.074;2023-02-13T04:54:51;25.90;;;9.53;;
74707;SDS011;63360;50.104;8.074;2023-02-13T04:57:17;26.25;;;9.10;;
74707;SDS011;63360;50.104;8.074;2023-02-13T04:59:44;23.98;;;9.15;;
74707;SDS011;63360;50.104;8.074;2023-02-13T05:02:10;26.92;;;9.77;;
74707;SDS011;63360;50.104;8.074;2023-02-13T05:04:36;23.23;;;8.35;;
74707;SDS011;63360;50.104;8.074;2023-02-13T05:07:03;25.57;;;8.30;;
74707;SDS011;63360;50.104;8.074;2023-02-13T05:09:29;28.90;;;9.60;;
74707;SDS011;63360;50.104;8.074;2023-02-13T05:11:56;28.67;;;9.85;;
74707;SDS011;63360;50.104;8.074;2023-02-13T05:14:22;28.02;;;9.32;;
74707;SDS011;63360;50.104;8.074;2023-02-13T05:16:49;28.67;;;9.13;;
74707;SDS011;63360;50.104;8.074;2023-02-13T05:19:15;28.63;;;9.63;;
74707;SDS011;63360;50.104;8.074;2023-02-13T05:21:42;27.75;;;10.32;;
74707;SDS011;63360;50.104;8.074;2023-02-13T05:24:27;27.63;;;10.23;;
74707;SDS011;63360;50.104;8.074;2023-02-13T05:26:53;34.97;;;15.35;;
74707;SDS011;63360;50.104;8.074;2023-02-13T05:29:20;35.70;;;15.63;;
74707;SDS011;63360;50.104;8.074;2023-02-13T05:31:51;31.80;;;13.77;;
74707;SDS011;63360;50.104;8.074;2023-02-13T05:34:20;26.10;;;10.15;;
74707;SDS011;63360;50.104;8.074;2023-02-13T05:36:48;24.90;;;10.18;;
74707;SDS011;63360;50.104;8.074;2023-02-13T05:39:15;24.60;;;9.45;;
74707;SDS011;63360;50.104;8.074;2023-02-13T05:41:42;24.98;;;9.40;;
74707;SDS011;63360;50.104;8.074;2023-02-13T05:44:10;22.63;;;8.33;;
74707;SDS011;63360;50.104;8.074;2023-02-13T05:46:37;21.77;;;7.88;;
74707;SDS011;63360;50.104;8.074;2023-02-13T05:49:05;23.10;;;8.10;;
74707;SDS011;63360;50.104;8.074;2023-02-13T05:51:32;22.58;;;7.93;;
74707;SDS011;63360;50.104;8.074;2023-02-13T05:53:59;22.33;;;7.80;;
74707;SDS011;63360;50.104;8.074;2023-02-13T05:56:25;18.83;;;7.23;;
74707;SDS011;63360;50.104;8.074;2023-02-13T05:58:52;20.08;;;7.55;;
74707;SDS011;63360;50.104;8.074;2023-02-13T06:01:20;21.20;;;7.68;;
74707;SDS011;63360;50.104;8.074;2023-02-13T06:03:48;21.80;;;8.15;;
74707;SDS011;63360;50.104;8.074;2023-02-13T06:06:14;23.02;;;8.23;;
74707;SDS011;63360;50.104;8.074;2023-02-13T06:08:41;19.50;;;7.73;;
74707;SDS011;63360;50.104;8.074;2023-02-13T06:11:08;23.73;;;8.18;;
74707;SDS011;63360;50.104;8.074;2023-02-13T06:13:36;20.50;;;7.35;;
74707;SDS011;63360;50.104;8.074;2023-02-13T06:16:06;19.98;;;7.22;;
74707;SDS011;63360;50.104;8.074;2023-02-13T06:18:33;22.17;;;8.05;;
74707;SDS011;63360;50.104;8.074;2023-02-13T06:21:00;20.40;;;7.20;;
74707;SDS011;63360;50.104;8.074;2023-02-13T06:23:28;21.40;;;8.10;;
74707;SDS011;63360;50.104;8.074;2023-02-13T06:25:55;21.48;;;8.35;;
74707;SDS011;63360;50.104;8.074;2023-02-13T06:28:21;19.63;;;7.43;;
74707;SDS011;63360;50.104;8.074;2023-02-13T06:30:47;24.70;;;8.25;;
74707;SDS011;63360;50.104;8.074;2023-02-13T06:33:14;20.63;;;8.20;;
74707;SDS011;63360;50.104;8.074;2023-02-13T06:35:40;29.50;;;8.98;;
74707;SDS011;63360;50.104;8.074;2023-02-13T06:38:07;27.85;;;8.73;;
74707;SDS011;63360;50.104;8.074;2023-02-13T06:40:33;27.02;;;8.95;;
74707;SDS011;63360;50.104;8.074;2023-02-13T06:42:59;22.58;;;8.68;;
74707;SDS011;63360;50.104;8.074;2023-02-13T06:45:26;24.87;;;9.13;;
74707;SDS011;63360;50.104;8.074;2023-02-13T06:47:52;27.02;;;8.48;;
74707;SDS011;63360;50.104;8.074;2023-02-13T06:50:19;26.02;;;8.38;;
74707;SDS011;63360;50.104;8.074;2023-02-13T06:52:49;25.00;;;9.15;;
74707;SDS011;63360;50.104;8.074;2023-02-13T06:55:16;26.52;;;9.88;;
74707;SDS011;63360;50.104;8.074;2023-02-13T06:57:44;24.70;;;9.23;;
74707;SDS011;63360;50.104;8.074;2023-02-13T07:00:11;28.05;;;10.27;;
74707;SDS011;63360;50.104;8.074;2023-02-13T07:02:39;22.33;;;9.20;;
74707;SDS011;63360;50.104;8.074;2023-02-13T07:05:06;25.85;;;8.73;;
74707;SDS011;63360;50.104;8.074;2023-02-13T07:07:34;22.42;;;7.93;;
74707;SDS011;63360;50.104;8.074;2023-02-13T07:10:02;25.40;;;9.37;;
74707;SDS011;63360;50.104;8.074;2023-02-13T07:12:34;25.10;;;9.38;;
74707;SDS011;63360;50.104;8.074;2023-02-13T07:15:04;24.00;;;8.20;;
74707;SDS011;63360;50.104;8.074;2023-02-13T07:17:31;22.02;;;8.15;;
74707;SDS011;63360;50.104;8.074;2023-02-13T07:19:59;25.05;;;8.50;;
74707;SDS011;63360;50.104;8.074;2023-02-13T07:22:25;24.83;;;8.83;;
74707;SDS011;63360;50.104;8.074;2023-02-13T07:24:51;24.33;;;8.80;;
74707;SDS011;63360;50.104;8.074;2023-02-13T07:27:18;23.88;;;8.68;;
74707;SDS011;63360;50.104;8.074;2023-02-13T07:29:44;21.63;;;7.93;;
74707;SDS011;63360;50.104;8.074;2023-02-13T07:32:11;31.25;;;9.88;;
74707;SDS011;63360;50.104;8.074;2023-02-13T07:34:37;29.60;;;10.00;;
74707;SDS011;63360;50.104;8.074;2023-02-13T07:37:11;23.95;;;8.85;;
74707;SDS011;63360;50.104;8.074;2023-02-13T07:39:38;28.20;;;10.50;;
74707;SDS011;63360;50.104;8.074;2023-02-13T07:42:04;30.30;;;10.95;;
74707;SDS011;63360;50.104;8.074;2023-02-13T07:44:31;27.15;;;10.30;;
74707;SDS011;63360;50.104;8.074;2023-02-13T07:46:57;26.70;;;10.50;;
74707;SDS011;63360;50.104;8.074;2023-02-13T07:49:26;28.10;;;9.98;;
74707;SDS011;63360;50.104;8.074;2023-02-13T07:51:52;28.77;;;10.82;;
74707;SDS011;63360;50.104;8.074;2023-02-13T07:54:21;28.80;;;10.52;;
74707;SDS011;63360;50.104;8.074;2023-02-13T07:56:48;34.80;;;11.30;;
74707;SDS011;63360;50.104;8.074;2023-02-13T07:59:14;32.57;;;11.47;;
74707;SDS011;63360;50.104;8.074;2023-02-13T08:01:41;25.80;;;10.35;;
74707;SDS011;63360;50.104;8.074;2023-02-13T08:04:07;28.38;;;10.65;;
74707;SDS011;63360;50.104;8.074;2023-02-13T08:06:34;26.55;;;10.02;;
74707;SDS011;63360;50.104;8.074;2023-02-13T08:09:00;24.77;;;10.20;;
74707;SDS011;63360;50.104;8.074;2023-02-13T08:11:45;26.73;;;10.43;;
74707;SDS011;63360;50.104;8.074;2023-02-13T08:14:21;28.20;;;10.13;;
74707;SDS011;63360;50.104;8.074;2023-02-13T08:16:48;27.13;;;9.73;;
74707;SDS011;63360;50.104;8.074;2023-02-13T08:19:15;21.95;;;8.27;;
74707;SDS011;63360;50.104;8.074;2023-02-13T08:21:42;23.45;;;8.25;;
74707;SDS011;63360;50.104;8.074;2023-02-13T08:24:09;23.33;;;8.77;;
74707;SDS011;63360;50.104;8.074;2023-02-13T08:26:35;21.77;;;8.82;;
74707;SDS011;63360;50.104;8.074;2023-02-13T08:29:02;18.42;;;6.90;;
74707;SDS011;63360;50.104;8.074;2023-02-13T08:31:30;19.63;;;8.18;;
74707;SDS011;63360;50.104;8.074;2023-02-13T08:33:57;18.85;;;7.40;;
74707;SDS011;63360;50.104;8.074;2023-02-13T08:36:23;18.53;;;7.80;;
74707;SDS011;63360;50.104;8.074;2023-02-13T08:38:50;18.85;;;7.32;;
74707;SDS011;63360;50.104;8.074;2023-02-13T08:41:16;19.13;;;7.43;;
74707;SDS011;63360;50.104;8.074;2023-02-13T08:43:44;15.75;;;6.40;;
74707;SDS011;63360;50.104;8.074;2023-02-13T08:46:10;14.15;;;5.93;;
74707;SDS011;63360;50.104;8.074;2023-02-13T08:48:37;14.83;;;6.40;;
74707;SDS011;63360;50.104;8.074;2023-02-13T08:51:07;14.90;;;6.25;;
74707;SDS011;63360;50.104;8.074;2023-02-13T08:53:35;14.45;;;6.55;;
74707;SDS011;63360;50.104;8.074;2023-02-13T08:56:01;14.27;;;6.72;;
74707;SDS011;63360;50.104;8.074;2023-02-13T08:58:28;14.88;;;6.00;;
74707;SDS011;63360;50.104;8.074;2023-02-13T09:00:55;15.20;;;6.50;;
74707;SDS011;63360;50.104;8.074;2023-02-13T09:03:21;13.55;;;6.05;;
74707;SDS011;63360;50.104;8.074;2023-02-13T09:05:48;12.90;;;5.90;;
74707;SDS011;63360;50.104;8.074;2023-02-13T09:08:14;14.02;;;5.70;;
74707;SDS011;63360;50.104;8.074;2023-02-13T09:10:43;12.45;;;5.53;;
74707;SDS011;63360;50.104;8.074;2023-02-13T09:13:10;10.77;;;4.53;;
74707;SDS011;63360;50.104;8.074;2023-02-13T09:15:37;12.90;;;5.20;;
74707;SDS011;63360;50.104;8.074;2023-02-13T09:18:05;12.35;;;5.80;;
74707;SDS011;63360;50.104;8.074;2023-02-13T09:20:32;11.07;;;5.18;;
74707;SDS011;63360;50.104;8.074;2023-02-13T09:23:01;13.20;;;5.85;;
74707;SDS011;63360;50.104;8.074;2023-02-13T09:25:27;11.53;;;5.20;;
74707;SDS011;63360;50.104;8.074;2023-02-13T09:27:54;11.85;;;5.38;;
74707;SDS011;63360;50.104;8.074;2023-02-13T09:30:20;11.55;;;5.50;;
74707;SDS011;63360;50.104;8.074;2023-02-13T09:32:50;12.60;;;5.30;;
74707;SDS011;63360;50.104;8.074;2023-02-13T09:35:18;11.68;;;5.20;;
74707;SDS011;63360;50.104;8.074;2023-02-13T09:37:45;12.83;;;5.70;;
74707;SDS011;63360;50.104;8.074;2023-02-13T09:40:15;13.02;;;5.90;;
74707;SDS011;63360;50.104;8.074;2023-02-13T09:42:45;13.63;;;5.68;;
74707;SDS011;63360;50.104;8.074;2023-02-13T09:45:14;13.35;;;5.80;;
74707;SDS011;63360;50.104;8.074;2023-02-13T09:47:44;14.15;;;5.45;;
74707;SDS011;63360;50.104;8.074;2023-02-13T09:50:23;12.97;;;5.40;;
74707;SDS011;63360;50.104;8.074;2023-02-13T09:52:53;12.75;;;5.15;;
74707;SDS011;63360;50.104;8.074;2023-02-13T09:55:23;12.98;;;5.50;;
74707;SDS011;63360;50.104;8.074;2023-02-13T09:57:59;11.27;;;5.43;;
74707;SDS011;63360;50.104;8.074;2023-02-13T10:00:41;13.88;;;5.50;;
74707;SDS011;63360;50.104;8.074;2023-02-13T10:03:13;12.20;;;5.10;;
74707;SDS011;63360;50.104;8.074;2023-02-13T10:14:17;12.43;;;5.55;;
74707;SDS011;63360;50.104;8.074;2023-02-13T10:16:46;11.90;;;5.60;;
74707;SDS011;63360;50.104;8.074;2023-02-13T10:19:39;12.13;;;5.35;;
74707;SDS011;63360;50.104;8.074;2023-02-13T10:22:13;12.90;;;4.88;;
74707;SDS011;63360;50.104;8.074;2023-02-13T10:24:44;12.90;;;5.65;;
74707;SDS011;63360;50.104;8.074;2023-02-13T10:27:16;12.57;;;5.75;;
74707;SDS011;63360;50.104;8.074;2023-02-13T10:29:49;12.77;;;5.57;;
74707;SDS011;63360;50.104;8.074;2023-02-13T10:32:41;13.00;;;5.18;;
74707;SDS011;63360;50.104;8.074;2023-02-13T10:35:20;12.77;;;5.85;;
74707;SDS011;63360;50.104;8.074;2023-02-13T10:37:54;12.73;;;5.90;;
74707;SDS011;63360;50.104;8.074;2023-02-13T10:40:31;12.00;;;5.50;;
74707;SDS011;63360;50.104;8.074;2023-02-13T10:43:08;11.67;;;5.33;;
74707;SDS011;63360;50.104;8.074;2023-02-13T10:50:55;11.57;;;5.13;;
74707;SDS011;63360;50.104;8.074;2023-02-13T11:01:41;9.93;;;4.70;;
74707;SDS011;63360;50.104;8.074;2023-02-13T11:04:16;12.68;;;5.43;;
74707;SDS011;63360;50.104;8.074;2023-02-13T11:06:53;11.73;;;5.38;;
74707;SDS011;63360;50.104;8.074;2023-02-13T11:09:22;14.17;;;5.57;;
74707;SDS011;63360;50.104;8.074;2023-02-13T11:11:50;10.93;;;5.30;;
74707;SDS011;63360;50.104;8.074;2023-02-13T11:14:18;11.60;;;5.75;;
74707;SDS011;63360;50.104;8.074;2023-02-13T11:16:57;10.10;;;4.95;;
74707;SDS011;63360;50.104;8.074;2023-02-13T11:19:38;8.80;;;4.45;;
74707;SDS011;63360;50.104;8.074;2023-02-13T11:22:13;10.17;;;5.40;;
74707;SDS011;63360;50.104;8.074;2023-02-13T11:24:52;11.40;;;5.13;;
74707;SDS011;63360;50.104;8.074;2023-02-13T11:27:22;11.00;;;4.97;;
74707;SDS011;63360;50.104;8.074;2023-02-13T11:30:04;9.88;;;4.70;;
74707;SDS011;63360;50.104;8.074;2023-02-13T11:33:31;9.00;;;4.20;;
74707;SDS011;63360;50.104;8.074;2023-02-13T11:35:42;8.70;;;4.27;;
74707;SDS011;63360;50.104;8.074;2023-02-13T11:40:35;10.35;;;4.68;;
74707;SDS011;63360;50.104;8.074;2023-02-13T11:43:04;12.63;;;5.03;;
74707;SDS011;63360;50.104;8.074;2023-02-13T11:45:31;10.63;;;4.72;;
74707;SDS011;63360;50.104;8.074;2023-02-13T11:47:58;12.10;;;5.07;;
74707;SDS011;63360;50.104;8.074;2023-02-13T11:52:55;10.52;;;5.25;;
74707;SDS011;63360;50.104;8.074;2023-02-13T11:55:36;8.63;;;3.97;;
74707;SDS011;63360;50.104;8.074;2023-02-13T12:00:38;9.03;;;4.07;;
74707;SDS011;63360;50.104;8.074;2023-02-13T12:03:23;8.63;;;4.22;;
74707;SDS011;63360;50.104;8.074;2023-02-13T12:05:58;8.18;;;3.78;;
74707;SDS011;63360;50.104;8.074;2023-02-13T12:08:25;7.80;;;3.97;;
74707;SDS011;63360;50.104;8.074;2023-02-13T12:10:52;8.95;;;3.92;;
74707;SDS011;63360;50.104;8.074;2023-02-13T12:13:20;8.53;;;3.67;;
74707;SDS011;63360;50.104;8.074;2023-02-13T12:15:58;8.57;;;3.67;;
74707;SDS011;63360;50.104;8.074;2023-02-13T12:18:29;7.38;;;3.58;;
74707;SDS011;63360;50.104;8.074;2023-02-13T12:24:30;7.57;;;3.58;;
74707;SDS011;63360;50.104;8.074;2023-02-13T12:30:06;10.50;;;4.18;;
74707;SDS011;63360;50.104;8.074;2023-02-13T12:41:22;8.07;;;4.20;;
74707;SDS011;63360;50.104;8.074;2023-02-13T12:46:48;8.68;;;3.75;;
74707;SDS011;63360;50.104;8.074;2023-02-13T12:49:39;7.85;;;3.40;;
74707;SDS011;63360;50.104;8.074;2023-02-13T12:55:27;8.30;;;3.37;;
74707;SDS011;63360;50.104;8.074;2023-02-13T12:58:23;6.70;;;2.97;;
74707;SDS011;63360;50.104;8.074;2023-02-13T13:18:16;9.38;;;3.75;;
74707;SDS011;63360;50.104;8.074;2023-02-13T13:24:02;7.97;;;3.27;;
74707;SDS011;63360;50.104;8.074;2023-02-13T13:26:40;6.10;;;2.97;;
74707;SDS011;63360;50.104;8.074;2023-02-13T13:29:14;6.85;;;3.28;;
74707;SDS011;63360;50.104;8.074;2023-02-13T13:32:05;8.75;;;3.65;;
74707;SDS011;63360;50.104;8.074;2023-02-13T13:34:34;9.52;;;4.18;;
74707;SDS011;63360;50.104;8.074;2023-02-13T13:42:14;9.65;;;4.15;;
74707;SDS011;63360;50.104;8.074;2023-02-13T13:48:06;9.02;;;3.90;;
74707;SDS011;63360;50.104;8.074;2023-02-13T13:50:44;10.90;;;4.30;;
74707;SDS011;63360;50.104;8.074;2023-02-13T13:53:13;11.80;;;4.43;;
74707;SDS011;63360;50.104;8.074;2023-02-13T13:58:23;13.32;;;4.93;;
74707;SDS011;63360;50.104;8.074;2023-02-13T14:03:42;11.50;;;4.63;;
74707;SDS011;63360;50.104;8.074;2023-02-13T14:06:20;11.65;;;4.50;;
74707;SDS011;63360;50.104;8.074;2023-02-13T14:11:51;9.32;;;4.20;;
74707;SDS011;63360;50.104;8.074;2023-02-13T14:15:01;10.50;;;4.30;;
74707;SDS011;63360;50.104;8.074;2023-02-13T14:17:10;9.87;;;4.40;;
74707;SDS011;63360;50.104;8.074;2023-02-13T14:19:39;9.75;;;3.97;;
74707;SDS011;63360;50.104;8.074;2023-02-13T14:27:21;11.00;;;4.38;;
74707;SDS011;63360;50.104;8.074;2023-02-13T14:29:49;9.47;;;4.10;;
74707;SDS011;63360;50.104;8.074;2023-02-13T14:34:53;8.45;;;3.95;;
74707;SDS011;63360;50.104;8.074;2023-02-13T14:37:36;7.78;;;3.92;;
74707;SDS011;63360;50.104;8.074;2023-02-13T14:42:46;9.37;;;3.80;;
74707;SDS011;63360;50.104;8.074;2023-02-13T14:45:21;6.57;;;3.00;;
74707;SDS011;63360;50.104;8.074;2023-02-13T14:47:53;6.80;;;2.90;;
74707;SDS011;63360;50.104;8.074;2023-02-13T14:52:56;8.15;;;3.17;;
74707;SDS011;63360;50.104;8.074;2023-02-13T14:55:32;7.97;;;3.40;;
74707;SDS011;63360;50.104;8.074;2023-02-13T14:58:04;7.85;;;3.55;;
74707;SDS011;63360;50.104;8.074;2023-02-13T15:00:39;7.75;;;3.83;;
74707;SDS011;63360;50.104;8.074;2023-02-13T15:05:47;8.02;;;3.45;;
74707;SDS011;63360;50.104;8.074;2023-02-13T15:08:18;11.50;;;4.43;;
74707;SDS011;63360;50.104;8.074;2023-02-13T15:10:49;8.98;;;3.90;;
74707;SDS011;63360;50.104;8.074;2023-02-13T15:13:19;8.25;;;3.70;;
74707;SDS011;63360;50.104;8.074;2023-02-13T15:15:54;9.77;;;3.45;;
74707;SDS011;63360;50.104;8.074;2023-02-13T15:18:28;9.52;;;4.07;;
74707;SDS011;63360;50.104;8.074;2023-02-13T15:20:59;8.13;;;3.93;;
74707;SDS011;63360;50.104;8.074;2023-02-13T15:23:28;8.30;;;3.90;;
74707;SDS011;63360;50.104;8.074;2023-02-13T15:26:05;10.77;;;4.13;;
74707;SDS011;63360;50.104;8.074;2023-02-13T15:28:33;9.10;;;4.30;;
74707;SDS011;63360;50.104;8.074;2023-02-13T15:31:02;9.02;;;3.72;;
74707;SDS011;63360;50.104;8.074;2023-02-13T15:33:47;9.77;;;4.13;;
74707;SDS011;63360;50.104;8.074;2023-02-13T15:36:16;12.10;;;4.82;;
74707;SDS011;63360;50.104;8.074;2023-02-13T15:38:45;8.55;;;4.22;;
74707;SDS011;63360;50.104;8.074;2023-02-13T15:41:17;13.55;;;4.50;;
74707;SDS011;63360;50.104;8.074;2023-02-13T15:43:51;10.25;;;4.47;;
74707;SDS011;63360;50.104;8.074;2023-02-13T15:46:27;10.40;;;4.20;;
74707;SDS011;63360;50.104;8.074;2023-02-13T15:48:57;9.85;;;4.40;;
74707;SDS011;63360;50.104;8.074;2023-02-13T15:51:27;10.60;;;4.55;;
74707;SDS011;63360;50.104;8.074;2023-02-13T15:53:59;8.82;;;4.32;;
74707;SDS011;63360;50.104;8.074;2023-02-13T15:56:31;8.38;;;4.00;;
74707;SDS011;63360;50.104;8.074;2023-02-13T15:58:58;10.23;;;4.20;;
74707;SDS011;63360;50.104;8.074;2023-02-13T16:01:26;9.05;;;4.22;;
74707;SDS011;63360;50.104;8.074;2023-02-13T16:04:01;8.30;;;3.70;;
74707;SDS011;63360;50.104;8.074;2023-02-13T16:06:31;11.02;;;4.82;;
74707;SDS011;63360;50.104;8.074;2023-02-13T16:08:59;11.77;;;4.82;;
74707;SDS011;63360;50.104;8.074;2023-02-13T16:11:28;9.97;;;4.43;;
74707;SDS011;63360;50.104;8.074;2023-02-13T16:13:59;9.57;;;4.55;;
74707;SDS011;63360;50.104;8.074;2023-02-13T16:16:30;10.40;;;4.55;;
74707;SDS011;63360;50.104;8.074;2023-02-13T16:19:01;9.35;;;4.75;;
74707;SDS011;63360;50.104;8.074;2023-02-13T16:21:28;11.30;;;4.60;;
74707;SDS011;63360;50.104;8.074;2023-02-13T16:24:00;9.70;;;4.83;;
74707;SDS011;63360;50.104;8.074;2023-02-13T16:26:32;9.90;;;4.18;;
74707;SDS011;63360;50.104;8.074;2023-02-13T16:29:01;11.48;;;4.65;;
74707;SDS011;63360;50.104;8.074;2023-02-13T16:31:27;11.00;;;4.10;;
74707;SDS011;63360;50.104;8.074;2023-02-13T16:33:54;9.73;;;4.10;;
74707;SDS011;63360;50.104;8.074;2023-02-13T16:36:27;10.77;;;5.00;;
74707;SDS011;63360;50.104;8.074;2023-02-13T16:38:55;11.25;;;5.13;;
74707;SDS011;63360;50.104;8.074;2023-02-13T16:49:12;10.13;;;4.93;;
74707;SDS011;63360;50.104;8.074;2023-02-13T16:51:48;11.93;;;5.32;;
74707;SDS011;63360;50.104;8.074;2023-02-13T16:54:21;27.02;;;11.02;;
74707;SDS011;63360;50.104;8.074;2023-02-13T16:57:00;21.27;;;9.10;;
74707;SDS011;63360;50.104;8.074;2023-02-13T17:07:43;13.02;;;5.65;;
74707;SDS011;63360;50.104;8.074;2023-02-13T17:15:29;9.80;;;4.70;;
74707;SDS011;63360;50.104;8.074;2023-02-13T17:17:57;9.38;;;4.35;;
74707;SDS011;63360;50.104;8.074;2023-02-13T17:20:30;8.77;;;4.15;;
74707;SDS011;63360;50.104;8.074;2023-02-13T17:23:02;9.60;;;4.75;;
74707;SDS011;63360;50.104;8.074;2023-02-13T17:25:35;7.72;;;3.63;;
74707;SDS011;63360;50.104;8.074;2023-02-13T17:28:09;7.40;;;3.13;;
74707;SDS011;63360;50.104;8.074;2023-02-13T17:30:38;8.95;;;3.60;;
74707;SDS011;63360;50.104;8.074;2023-02-13T17:33:06;8.65;;;3.75;;